Time;durP1;ratioP1;P1;durP2;ratioP2;P2;SDS_P1;SDS_P2;PMS_P1;PMS_P2;Temp;Humidity;BMP_temperature;BMP_pressure;BME280_temperature;BME280_humidity;BME280_pressure;Samples;Min_cycle;Max_cycle;Signal;HPM_P1;HPM_P2
2022/10/07 00:00:51;;;;;;;4.15;1.95;;;12.40;58.90;;;;;;5013172;28;20042;-45
2022/10/07 00:03:19;;;;;;;2.47;1.80;;;12.40;58.30;;;;;;5010542;28;20516;-46
2022/10/07 00:05:46;;;;;;;3.05;1.70;;;12.30;58.40;;;;;;5021522;28;20045;-49
2022/10/07 00:08:13;;;;;;;6.28;2.45;;;12.30;58.40;;;;;;5036114;28;20057;-47
2022/10/07 00:10:42;;;;;;;4.30;1.52;;;12.30;58.30;;;;;;5036088;28;20041;-48
2022/10/07 00:13:10;;;;;;;3.28;2.05;;;12.30;58.30;;;;;;5013647;28;20045;-44
2022/10/07 00:15:37;;;;;;;5.15;1.98;;;12.20;58.30;;;;;;5031723;28;20103;-46
2022/10/07 00:18:04;;;;;;;3.83;2.10;;;12.20;58.40;;;;;;5007134;28;20030;-45
2022/10/07 00:20:38;;;;;;;4.05;2.35;;;12.20;58.40;;;;;;5012257;28;20080;-45
2022/10/07 00:23:06;;;;;;;2.95;2.10;;;12.20;58.60;;;;;;5027024;28;20045;-46
2022/10/07 00:25:36;;;;;;;4.25;2.47;;;12.20;58.70;;;;;;5036555;28;20092;-45
2022/10/07 00:28:04;;;;;;;4.13;2.30;;;12.10;58.80;;;;;;5035731;28;20052;-47
2022/10/07 00:30:31;;;;;;;3.63;2.15;;;12.10;58.60;;;;;;5024200;28;20045;-46
2022/10/07 00:32:57;;;;;;;5.03;2.28;;;12.10;59.00;;;;;;5016922;28;20055;-45
2022/10/07 00:35:24;;;;;;;5.40;1.95;;;12.00;58.60;;;;;;5036433;28;20037;-46
2022/10/07 00:37:51;;;;;;;3.55;1.85;;;12.00;58.60;;;;;;5011754;28;20040;-49
2022/10/07 00:40:17;;;;;;;2.83;1.60;;;12.00;59.10;;;;;;5017439;28;20413;-44
2022/10/07 00:42:44;;;;;;;4.68;2.10;;;12.00;58.70;;;;;;5011696;28;20049;-45
2022/10/07 00:45:16;;;;;;;5.38;2.90;;;12.00;58.70;;;;;;5018587;28;20045;-46
2022/10/07 00:47:45;;;;;;;2.65;2.10;;;12.00;58.80;;;;;;5013891;28;20033;-48
2022/10/07 00:50:24;;;;;;;4.90;2.10;;;11.90;58.90;;;;;;5009963;28;20041;-45
2022/10/07 00:52:56;;;;;;;5.88;2.67;;;11.90;59.20;;;;;;5017848;28;20050;-44
2022/10/07 00:55:26;;;;;;;3.40;2.30;;;11.90;59.00;;;;;;5026474;28;20038;-48
2022/10/07 00:58:00;;;;;;;2.05;1.75;;;11.90;58.80;;;;;;5016651;28;20042;-45
2022/10/07 01:00:27;;;;;;;3.63;2.05;;;11.90;59.00;;;;;;5015596;28;20046;-48
2022/10/07 01:02:55;;;;;;;3.33;1.65;;;11.80;58.80;;;;;;5030212;28;20506;-46
2022/10/07 01:05:23;;;;;;;3.05;1.88;;;11.80;58.80;;;;;;5036670;28;20493;-45
2022/10/07 01:07:50;;;;;;;5.32;2.22;;;11.80;59.60;;;;;;5006470;28;20057;-46
2022/10/07 01:10:23;;;;;;;4.45;1.80;;;11.80;59.00;;;;;;5027178;28;20490;-46
2022/10/07 01:13:16;;;;;;;5.60;1.65;;;11.70;58.90;;;;;;5035825;28;20048;-46
2022/10/07 01:15:56;;;;;;;3.33;2.40;;;11.70;59.70;;;;;;5034246;28;20735;-45
2022/10/07 01:18:41;;;;;;;4.90;1.73;;;11.70;59.30;;;;;;4994002;28;20121;-45
2022/10/07 01:21:21;;;;;;;3.10;1.40;;;11.70;59.40;;;;;;5009385;28;20080;-45
2022/10/07 01:24:28;;;;;;;5.40;2.00;;;11.70;59.10;;;;;;4998536;28;20048;-44
2022/10/07 01:27:05;;;;;;;2.42;1.80;;;11.60;59.70;;;;;;4999269;28;20046;-44
2022/10/07 01:29:39;;;;;;;5.57;1.70;;;11.60;58.80;;;;;;5032731;28;20041;-45
2022/10/07 01:32:20;;;;;;;3.58;2.15;;;11.60;59.10;;;;;;5005302;28;20069;-45
2022/10/07 01:34:50;;;;;;;2.78;1.80;;;11.60;59.30;;;;;;5006527;28;20056;-44
2022/10/07 01:37:21;;;;;;;3.33;1.52;;;11.50;59.10;;;;;;5019056;28;20079;-48
2022/10/07 01:39:52;;;;;;;3.95;1.70;;;11.50;59.20;;;;;;5013592;28;20091;-48
2022/10/07 01:42:20;;;;;;;1.80;1.42;;;11.50;59.40;;;;;;5013968;28;20049;-45
2022/10/07 01:44:52;;;;;;;4.57;1.85;;;11.50;59.30;;;;;;5019282;28;20038;-46
2022/10/07 01:47:19;;;;;;;3.92;1.27;;;11.50;59.30;;;;;;5010643;28;20052;-44
2022/10/07 01:49:47;;;;;;;4.57;2.10;;;11.40;59.30;;;;;;5014349;28;20052;-45
2022/10/07 01:52:41;;;;;;;2.35;1.83;;;11.40;59.40;;;;;;5031655;28;20091;-46
2022/10/07 01:55:34;;;;;;;4.22;2.08;;;11.40;60.00;;;;;;4997570;28;20516;-45
2022/10/07 01:58:22;;;;;;;2.45;1.88;;;11.40;59.80;;;;;;5005978;28;20044;-46
2022/10/07 02:01:17;;;;;;;2.50;1.63;;;11.40;59.60;;;;;;5012952;28;20615;-44
2022/10/07 02:04:03;;;;;;;3.75;1.70;;;11.40;59.50;;;;;;5009248;28;20038;-46
2022/10/07 02:06:48;;;;;;;2.53;1.48;;;11.30;59.20;;;;;;5001811;28;20445;-45
2022/10/07 02:09:32;;;;;;;2.78;1.83;;;11.30;59.50;;;;;;4999977;28;20417;-46
2022/10/07 02:12:16;;;;;;;2.85;1.63;;;11.30;59.90;;;;;;5027062;28;20042;-44
2022/10/07 02:15:04;;;;;;;3.33;1.90;;;11.30;59.70;;;;;;4986803;28;20052;-46
2022/10/07 02:17:36;;;;;;;3.60;1.85;;;11.30;60.00;;;;;;4994923;28;20069;-47
2022/10/07 02:20:07;;;;;;;2.08;1.70;;;11.30;59.60;;;;;;5009415;28;20172;-47
2022/10/07 02:22:39;;;;;;;6.47;0.98;;;11.20;59.60;;;;;;4996509;28;20039;-46
2022/10/07 02:25:06;;;;;;;5.15;1.42;;;11.20;59.50;;;;;;5001645;28;20132;-47
2022/10/07 02:27:36;;;;;;;3.00;1.40;;;11.20;59.50;;;;;;5008708;28;20449;-46
2022/10/07 02:30:12;;;;;;;2.88;1.50;;;11.20;59.60;;;;;;4994966;28;20095;-45
2022/10/07 02:32:46;;;;;;;5.78;1.95;;;11.10;60.10;;;;;;5005458;28;20554;-49
2022/10/07 02:35:22;;;;;;;3.15;1.17;;;11.10;59.90;;;;;;5009218;28;20029;-45
2022/10/07 02:37:53;;;;;;;2.67;1.48;;;11.10;59.80;;;;;;5012848;28;20132;-47
2022/10/07 02:40:22;;;;;;;4.88;1.80;;;11.10;59.80;;;;;;5011167;28;20116;-45
2022/10/07 02:42:59;;;;;;;3.17;1.40;;;11.10;59.80;;;;;;5012513;28;20046;-44
2022/10/07 02:45:44;;;;;;;4.00;1.42;;;11.10;60.10;;;;;;5006614;28;20038;-47
2022/10/07 02:48:20;;;;;;;3.55;1.65;;;11.10;60.50;;;;;;4993688;28;20050;-47
2022/10/07 02:50:54;;;;;;;1.92;1.60;;;11.00;60.10;;;;;;4988816;28;20048;-46
2022/10/07 02:53:25;;;;;;;3.30;1.67;;;11.00;59.80;;;;;;5001199;28;20506;-46
2022/10/07 02:55:53;;;;;;;2.25;1.90;;;11.00;59.80;;;;;;4997343;28;20520;-44
2022/10/07 02:58:24;;;;;;;2.90;1.13;;;11.00;59.80;;;;;;5012951;28;20041;-46
2022/10/07 03:00:59;;;;;;;2.17;1.17;;;11.00;60.00;;;;;;5013247;28;20061;-45
2022/10/07 03:03:29;;;;;;;3.70;1.58;;;10.90;60.00;;;;;;5001773;28;20045;-44
2022/10/07 03:06:04;;;;;;;4.18;1.38;;;10.90;59.90;;;;;;5013294;28;20254;-47
2022/10/07 03:08:32;;;;;;;4.28;1.40;;;10.90;59.90;;;;;;4994392;28;20537;-46
2022/10/07 03:10:59;;;;;;;2.38;1.00;;;10.90;60.00;;;;;;4997620;28;20530;-45
2022/10/07 03:13:28;;;;;;;1.42;1.08;;;10.90;60.00;;;;;;5009243;28;20069;-46
2022/10/07 03:16:04;;;;;;;4.13;1.42;;;10.90;59.90;;;;;;5009689;28;20037;-44
2022/10/07 03:18:31;;;;;;;;;;;10.90;60.00;;;;;;5010036;28;20061;-46
2022/10/07 03:21:28;;;;;;;3.38;1.55;;;10.90;60.20;;;;;;4995403;28;19932;-45
2022/10/07 03:24:03;;;;;;;4.25;1.25;;;10.90;59.50;;;;;;5011184;28;20425;-46
2022/10/07 03:26:38;;;;;;;2.33;1.48;;;10.80;59.90;;;;;;5012856;28;20062;-48
2022/10/07 03:29:09;;;;;;;4.50;1.75;;;10.80;59.90;;;;;;4993460;28;20045;-45
2022/10/07 03:31:36;;;;;;;3.00;1.20;;;10.80;60.10;;;;;;5002182;28;20053;-44
2022/10/07 03:34:02;;;;;;;3.45;1.30;;;10.80;60.00;;;;;;5012788;28;20064;-46
2022/10/07 03:36:32;;;;;;;2.45;1.50;;;10.70;60.10;;;;;;5011487;28;20136;-46
2022/10/07 03:38:58;;;;;;;2.67;1.00;;;10.70;60.20;;;;;;5012186;28;20045;-47
2022/10/07 03:41:27;;;;;;;4.22;1.00;;;10.70;60.10;;;;;;4999620;28;20045;-46
2022/10/07 03:43:58;;;;;;;2.47;1.27;;;10.70;60.20;;;;;;5012287;28;20053;-46
2022/10/07 03:46:26;;;;;;;2.47;1.30;;;10.70;60.20;;;;;;4998713;28;20100;-45
2022/10/07 03:48:57;;;;;;;3.92;1.27;;;10.60;60.20;;;;;;5001192;28;20050;-47
2022/10/07 03:51:24;;;;;;;4.10;1.33;;;10.70;60.30;;;;;;5005572;28;20417;-45
2022/10/07 03:53:57;;;;;;;3.50;1.25;;;10.60;60.30;;;;;;5030009;28;20555;-45
2022/10/07 03:56:28;;;;;;;2.97;1.25;;;10.60;60.30;;;;;;5010332;28;20045;-45
2022/10/07 03:58:54;;;;;;;5.25;1.52;;;10.60;60.30;;;;;;5018034;28;20105;-44
2022/10/07 04:01:23;;;;;;;2.75;1.33;;;10.60;60.40;;;;;;5011316;28;20118;-46
2022/10/07 04:03:54;;;;;;;2.00;1.45;;;10.60;60.40;;;;;;5012699;28;20041;-44
2022/10/07 04:06:23;;;;;;;3.58;1.15;;;10.50;60.40;;;;;;5019953;28;20041;-45
2022/10/07 04:08:56;;;;;;;2.90;1.17;;;10.50;60.30;;;;;;5008200;28;20049;-44
2022/10/07 04:11:23;;;;;;;7.28;1.35;;;10.50;60.50;;;;;;5011436;28;20669;-44
2022/10/07 04:13:58;;;;;;;2.08;1.40;;;10.50;60.40;;;;;;5007280;28;20051;-46
2022/10/07 04:16:25;;;;;;;5.30;1.17;;;10.50;60.50;;;;;;5003621;28;20041;-45
2022/10/07 04:18:58;;;;;;;2.10;1.10;;;10.50;60.50;;;;;;5012102;28;20041;-45
2022/10/07 04:21:27;;;;;;;6.10;1.50;;;10.50;60.60;;;;;;5010239;28;20092;-45
2022/10/07 04:23:53;;;;;;;5.80;1.50;;;10.50;60.70;;;;;;4999977;28;21004;-49
2022/10/07 04:26:21;;;;;;;2.30;1.38;;;10.40;60.70;;;;;;5000814;28;20045;-45
2022/10/07 04:28:50;;;;;;;3.90;1.55;;;10.40;60.70;;;;;;5022325;28;20050;-46
2022/10/07 04:31:19;;;;;;;5.45;1.95;;;10.40;60.70;;;;;;4983442;28;20511;-45
2022/10/07 04:33:54;;;;;;;2.53;1.60;;;10.40;60.80;;;;;;4989189;28;20042;-45
2022/10/07 04:36:26;;;;;;;4.10;1.15;;;10.40;60.80;;;;;;4997703;28;20577;-45
2022/10/07 04:39:08;;;;;;;2.13;1.20;;;10.40;60.80;;;;;;5012018;28;20048;-45
2022/10/07 04:41:43;;;;;;;2.85;1.10;;;10.40;60.70;;;;;;4986643;28;20762;-45
2022/10/07 04:44:15;;;;;;;2.00;1.67;;;10.40;60.70;;;;;;4991571;28;20043;-45
2022/10/07 04:46:50;;;;;;;3.17;1.70;;;10.40;60.90;;;;;;4991633;28;20188;-46
2022/10/07 04:49:18;;;;;;;1.92;1.25;;;10.40;61.00;;;;;;5004690;28;20103;-45
2022/10/07 04:51:46;;;;;;;3.15;1.40;;;10.40;61.10;;;;;;5011133;28;20141;-47
2022/10/07 04:54:13;;;;;;;3.00;1.70;;;10.40;61.20;;;;;;4995582;28;20042;-46
2022/10/07 04:56:48;;;;;;;2.65;1.45;;;10.40;61.20;;;;;;5004742;28;20045;-46
2022/10/07 04:59:19;;;;;;;2.38;1.08;;;10.40;61.20;;;;;;5015542;28;20151;-45
2022/10/07 05:01:49;;;;;;;1.88;1.27;;;10.30;61.10;;;;;;4993638;28;20037;-44
2022/10/07 05:04:16;;;;;;;2.45;1.60;;;10.40;61.20;;;;;;5003896;28;20038;-45
2022/10/07 05:06:44;;;;;;;2.67;1.33;;;10.40;61.30;;;;;;5010221;28;20509;-46
2022/10/07 05:09:11;;;;;;;2.33;1.23;;;10.30;61.20;;;;;;5014881;28;20103;-45
2022/10/07 05:11:42;;;;;;;3.63;1.48;;;10.30;61.30;;;;;;5005669;28;20136;-46
2022/10/07 05:14:19;;;;;;;3.28;1.42;;;10.30;61.30;;;;;;5012773;28;20053;-45
2022/10/07 05:16:47;;;;;;;3.78;1.25;;;10.30;61.30;;;;;;5010138;28;20569;-46
2022/10/07 05:19:15;;;;;;;6.53;2.10;;;10.30;61.20;;;;;;5007704;28;20572;-45
2022/10/07 05:21:42;;;;;;;4.45;1.50;;;10.30;61.30;;;;;;5007977;28;20125;-44
2022/10/07 05:24:09;;;;;;;6.18;1.77;;;10.30;61.60;;;;;;5016698;28;20124;-52
2022/10/07 05:26:38;;;;;;;4.55;1.30;;;10.30;61.60;;;;;;5009110;28;20069;-54
2022/10/07 05:29:07;;;;;;;2.08;1.08;;;10.30;61.70;;;;;;5012866;28;20132;-51
2022/10/07 05:31:38;;;;;;;2.45;1.50;;;10.30;61.90;;;;;;4989061;28;20054;-54
2022/10/07 05:34:06;;;;;;;4.05;2.05;;;10.30;61.80;;;;;;4997666;28;20517;-54
2022/10/07 05:36:37;;;;;;;2.97;1.33;;;10.30;61.80;;;;;;5013445;28;20060;-50
2022/10/07 05:39:05;;;;;;;6.20;1.30;;;10.30;61.80;;;;;;4995408;28;20050;-54
2022/10/07 05:41:40;;;;;;;5.60;1.70;;;10.30;61.80;;;;;;5000295;28;20296;-54
2022/10/07 05:44:16;;;;;;;3.80;1.40;;;10.30;61.90;;;;;;5012529;28;20087;-53
2022/10/07 05:46:43;;;;;;;2.53;1.40;;;10.30;61.90;;;;;;4998501;28;20127;-52
2022/10/07 05:49:11;;;;;;;2.25;1.35;;;10.30;61.90;;;;;;4991150;28;20046;-49
2022/10/07 05:51:39;;;;;;;3.38;1.65;;;10.30;61.80;;;;;;4997334;28;20131;-51
2022/10/07 05:54:07;;;;;;;6.78;2.50;;;10.30;62.00;;;;;;5003090;28;20505;-53
2022/10/07 05:56:38;;;;;;;2.75;1.55;;;10.30;62.10;;;;;;4986958;28;20049;-51
2022/10/07 05:59:05;;;;;;;4.15;1.73;;;10.30;62.30;;;;;;4998992;28;20057;-50
2022/10/07 06:01:31;;;;;;;2.47;1.48;;;10.30;62.30;;;;;;5001665;28;20750;-52
2022/10/07 06:04:06;;;;;;;;;;;10.30;62.30;;;;;;5012750;28;20042;-49
2022/10/07 06:06:35;;;;;;;4.65;1.55;;;10.40;62.80;;;;;;4989049;28;19926;-53
2022/10/07 06:14:38;;;;;;;6.03;2.22;;;10.30;62.10;;;;;;5014860;28;20140;-53
2022/10/07 06:17:06;;;;;;;2.80;1.20;;;10.40;62.30;;;;;;4996278;28;20844;-53
2022/10/07 06:19:36;;;;;;;4.25;1.60;;;10.30;62.40;;;;;;4991585;28;20042;-48
2022/10/07 06:22:04;;;;;;;3.10;1.45;;;10.40;63.30;;;;;;5028440;28;20034;-54
2022/10/07 06:24:34;;;;;;;2.85;1.20;;;10.40;62.60;;;;;;5010901;28;20092;-50
2022/10/07 06:27:01;;;;;;;3.22;1.35;;;10.40;62.60;;;;;;4993633;28;20054;-49
2022/10/07 06:29:29;;;;;;;4.00;1.55;;;10.40;62.80;;;;;;5002853;28;20080;-52
2022/10/07 06:31:56;;;;;;;2.55;1.50;;;10.40;62.90;;;;;;5002781;28;20062;-50
2022/10/07 06:34:22;;;;;;;3.38;1.40;;;10.40;63.00;;;;;;4992147;28;20051;-49
2022/10/07 06:36:49;;;;;;;7.72;1.83;;;10.50;63.10;;;;;;4995787;28;20053;-51
2022/10/07 06:39:16;;;;;;;4.80;1.63;;;10.50;63.30;;;;;;5030088;28;20437;-49
2022/10/07 06:41:45;;;;;;;8.52;1.83;;;10.50;63.40;;;;;;5014398;28;20099;-48
2022/10/07 06:44:41;;;;;;;3.72;1.85;;;10.50;63.50;;;;;;4959330;28;20424;-50
2022/10/07 06:47:10;;;;;;;2.60;1.33;;;10.60;63.40;;;;;;5001931;28;20041;-53
2022/10/07 06:49:39;;;;;;;3.45;1.73;;;10.60;63.60;;;;;;5009801;28;20049;-49
2022/10/07 06:52:06;;;;;;;4.13;1.67;;;10.60;63.60;;;;;;5014370;28;20041;-53
2022/10/07 06:54:34;;;;;;;4.85;1.80;;;10.70;63.70;;;;;;5007831;28;20052;-50
2022/10/07 06:57:00;;;;;;;5.10;1.67;;;10.70;63.90;;;;;;5002025;28;20117;-53
2022/10/07 06:59:28;;;;;;;4.30;1.83;;;10.70;63.90;;;;;;5013535;28;20091;-52
2022/10/07 07:02:10;;;;;;;4.78;1.45;;;10.80;64.10;;;;;;4988226;28;20081;-51
2022/10/07 07:04:39;;;;;;;3.60;1.80;;;10.80;64.10;;;;;;4995932;28;20069;-50
2022/10/07 07:07:06;;;;;;;5.60;1.85;;;10.90;64.20;;;;;;5010457;28;20072;-50
2022/10/07 07:09:33;;;;;;;3.70;1.67;;;10.90;64.40;;;;;;5013474;28;20056;-49
2022/10/07 07:12:00;;;;;;;4.53;1.90;;;10.90;64.60;;;;;;5013690;28;20140;-53
2022/10/07 07:14:34;;;;;;;4.72;1.85;;;11.00;64.90;;;;;;4986701;28;20070;-50
2022/10/07 07:17:05;;;;;;;3.85;1.92;;;11.00;65.20;;;;;;5005817;28;20656;-49
2022/10/07 07:19:32;;;;;;;8.10;2.00;;;11.10;65.50;;;;;;5031227;28;20041;-51
2022/10/07 07:21:59;;;;;;;4.55;2.05;;;11.20;65.80;;;;;;4999747;28;20042;-49
2022/10/07 07:24:27;;;;;;;5.97;2.13;;;11.20;66.00;;;;;;5010277;28;20045;-51
2022/10/07 07:26:53;;;;;;;8.23;1.85;;;11.30;66.30;;;;;;5001887;28;20053;-52
2022/10/07 07:29:23;;;;;;;9.15;2.33;;;11.40;66.60;;;;;;4995364;28;20057;-48
2022/10/07 07:31:54;;;;;;;7.30;2.13;;;11.50;66.90;;;;;;4993454;28;20054;-50
2022/10/07 07:34:23;;;;;;;6.10;1.85;;;11.60;66.90;;;;;;4987354;28;20537;-52
2022/10/07 07:36:51;;;;;;;8.18;1.83;;;11.70;67.10;;;;;;5007544;28;20039;-50
2022/10/07 07:39:20;;;;;;;4.10;1.50;;;11.80;67.20;;;;;;4979879;28;20846;-49
2022/10/07 07:41:54;;;;;;;5.35;2.13;;;11.90;67.20;;;;;;5001224;28;20042;-53
2022/10/07 07:44:22;;;;;;;5.47;2.17;;;12.00;67.20;;;;;;5013153;28;20041;-50
2022/10/07 07:46:55;;;;;;;5.10;2.38;;;12.10;67.10;;;;;;5003238;28;20475;-50
2022/10/07 07:49:26;;;;;;;7.22;1.95;;;12.20;66.90;;;;;;4993497;28;20088;-53
2022/10/07 07:51:53;;;;;;;5.80;1.60;;;12.30;66.90;;;;;;4991416;28;20137;-50
2022/10/07 07:54:26;;;;;;;5.00;1.60;;;12.40;66.80;;;;;;5010820;28;20045;-53
2022/10/07 07:56:54;;;;;;;8.65;2.17;;;12.50;66.80;;;;;;4980984;28;20073;-52
2022/10/07 07:59:23;;;;;;;4.55;1.60;;;12.60;66.70;;;;;;5012418;28;20042;-51
2022/10/07 08:01:51;;;;;;;6.22;2.30;;;12.70;66.60;;;;;;4989049;28;20042;-51
2022/10/07 08:04:18;;;;;;;7.55;2.00;;;12.80;66.40;;;;;;5005513;28;20128;-52
2022/10/07 08:06:46;;;;;;;6.30;1.50;;;13.00;66.30;;;;;;5013127;28;20469;-53
2022/10/07 08:09:13;;;;;;;6.30;1.88;;;13.00;66.10;;;;;;5002154;28;20128;-54
2022/10/07 08:11:45;;;;;;;4.13;2.15;;;13.20;66.20;;;;;;4997900;28;20042;-50
2022/10/07 08:14:15;;;;;;;4.97;1.73;;;13.30;66.20;;;;;;4989853;28;20149;-50
2022/10/07 08:16:44;;;;;;;5.63;2.22;;;13.40;66.00;;;;;;4986044;28;20124;-50
2022/10/07 08:19:11;;;;;;;7.13;2.08;;;13.50;65.80;;;;;;4997035;28;20037;-51
2022/10/07 08:21:38;;;;;;;6.80;1.92;;;13.50;65.60;;;;;;5004814;28;20045;-53
2022/10/07 08:24:10;;;;;;;4.63;2.05;;;13.60;65.50;;;;;;5011589;28;20042;-49
2022/10/07 08:26:38;;;;;;;5.18;2.42;;;13.70;65.30;;;;;;4988381;28;20070;-49
2022/10/07 08:29:08;;;;;;;7.13;1.60;;;13.80;65.20;;;;;;5003898;28;20452;-51
2022/10/07 08:31:35;;;;;;;8.00;2.15;;;13.90;65.10;;;;;;4998928;28;20049;-49
2022/10/07 08:34:04;;;;;;;6.90;1.75;;;13.90;65.00;;;;;;5026940;28;20042;-53
2022/10/07 08:36:32;;;;;;;6.35;2.03;;;14.00;65.10;;;;;;5024719;28;20046;-50
2022/10/07 08:39:00;;;;;;;7.25;1.55;;;14.10;65.10;;;;;;5017518;28;20063;-51
2022/10/07 08:41:33;;;;;;;6.38;2.50;;;14.20;64.90;;;;;;5034242;28;20402;-50
2022/10/07 08:44:25;;;;;;;6.95;1.60;;;14.30;64.80;;;;;;5031412;28;20070;-49
2022/10/07 08:47:01;;;;;;;5.80;1.77;;;14.40;65.20;;;;;;5011584;28;20137;-49
2022/10/07 08:49:35;;;;;;;5.35;1.83;;;14.40;64.90;;;;;;4999932;28;20042;-50
2022/10/07 08:52:44;;;;;;;10.13;1.92;;;14.50;64.70;;;;;;5046087;22;20050;-51
2022/10/07 08:55:18;;;;;;;6.03;2.78;;;14.60;65.00;;;;;;5011790;28;20038;-53
2022/10/07 08:58:23;;;;;;;8.50;2.13;;;14.70;64.40;;;;;;4992698;28;20804;-52
2022/10/07 09:01:14;;;;;;;6.20;2.25;;;14.80;64.70;;;;;;4993514;28;20077;-54
2022/10/07 09:04:14;;;;;;;5.53;1.90;;;14.80;64.50;;;;;;4993585;28;20035;-54
2022/10/07 09:07:07;;;;;;;6.13;1.52;;;14.90;64.60;;;;;;4986557;28;20046;-55
2022/10/07 09:10:04;;;;;;;6.70;1.60;;;15.00;64.70;;;;;;4981550;28;20154;-52
2022/10/07 09:12:36;;;;;;;9.05;1.70;;;15.00;64.10;;;;;;4974610;28;20053;-51
2022/10/07 09:15:05;;;;;;;6.97;1.60;;;15.20;63.90;;;;;;4975056;28;20042;-54
2022/10/07 09:17:43;;;;;;;9.52;2.58;;;15.20;63.80;;;;;;4989622;28;20129;-53
2022/10/07 09:20:18;;;;;;;5.50;1.83;;;15.30;63.50;;;;;;4994289;28;20046;-51
2022/10/07 09:22:56;;;;;;;6.30;1.50;;;15.40;63.70;;;;;;4993520;28;20053;-53
2022/10/07 09:25:25;;;;;;;5.85;2.10;;;15.50;63.00;;;;;;4991280;28;20053;-51
2022/10/07 09:27:53;;;;;;;9.40;2.20;;;15.60;62.80;;;;;;4993395;28;20078;-50
2022/10/07 09:30:26;;;;;;;7.85;1.50;;;15.70;62.80;;;;;;4993323;28;20046;-54
2022/10/07 09:32:54;;;;;;;6.20;1.70;;;15.80;62.80;;;;;;4993261;28;20521;-54
2022/10/07 09:35:23;;;;;;;7.38;1.40;;;15.80;62.80;;;;;;4990000;28;20123;-53
2022/10/07 09:38:09;;;;;;;6.28;1.60;;;15.90;62.60;;;;;;4993157;28;20038;-54
2022/10/07 09:41:14;;;;;;;6.20;1.52;;;16.00;62.70;;;;;;4993913;28;20046;-53
2022/10/07 09:43:28;;;;;;;6.65;1.63;;;16.10;61.90;;;;;;4987516;28;20042;-55
2022/10/07 09:45:56;;;;;;;4.70;1.67;;;16.20;61.80;;;;;;4990909;28;20050;-53
2022/10/07 09:48:32;;;;;;;6.88;1.90;;;16.30;61.50;;;;;;4993580;28;20046;-53
2022/10/07 09:51:15;;;;;;;8.38;1.67;;;16.30;61.30;;;;;;4993851;28;20046;-54
2022/10/07 09:54:03;;;;;;;4.40;1.55;;;16.40;61.40;;;;;;4971394;28;20076;-54
2022/10/07 09:56:45;;;;;;;4.65;2.53;;;16.50;61.60;;;;;;4988253;28;20481;-55
2022/10/07 09:59:27;;;;;;;6.25;2.20;;;16.60;60.90;;;;;;4991979;28;20054;-54
2022/10/07 10:02:00;;;;;;;8.55;2.50;;;16.70;60.60;;;;;;4985050;28;20410;-54
2022/10/07 10:04:34;;;;;;;4.43;2.10;;;16.70;60.10;;;;;;4991420;28;20117;-51
2022/10/07 10:07:15;;;;;;;8.15;1.88;;;16.80;60.00;;;;;;4989060;28;20046;-54
2022/10/07 10:09:49;;;;;;;6.85;1.80;;;16.90;59.80;;;;;;4989868;28;20039;-54
2022/10/07 10:12:18;;;;;;;7.47;1.60;;;17.00;59.50;;;;;;4988357;28;20034;-54
2022/10/07 10:14:54;;;;;;;12.02;2.30;;;17.00;59.50;;;;;;4984790;28;20049;-54
2022/10/07 10:17:37;;;;;;;7.80;1.90;;;17.10;59.10;;;;;;4982643;28;20076;-54
2022/10/07 10:20:30;;;;;;;7.05;1.60;;;17.10;58.90;;;;;;4985685;28;20046;-56
2022/10/07 10:22:59;;;;;;;8.90;1.73;;;17.20;58.30;;;;;;4987701;28;20053;-53
2022/10/07 10:29:07;;;;;;;7.22;1.83;;;17.30;57.80;;;;;;4935301;28;20062;-53
2022/10/07 10:31:45;;;;;;;10.70;1.95;;;17.40;57.80;;;;;;4987853;28;20043;-54
2022/10/07 10:34:25;;;;;;;6.68;2.05;;;17.40;57.80;;;;;;4982793;28;20576;-51
2022/10/07 10:37:19;;;;;;;8.90;1.80;;;17.50;57.40;;;;;;4987521;28;20053;-55
2022/10/07 10:40:00;;;;;;;7.55;2.33;;;17.60;57.40;;;;;;4986404;28;20133;-51
2022/10/07 10:42:56;;;;;;;10.32;2.50;;;17.60;57.10;;;;;;4990553;28;20046;-54
2022/10/07 10:45:50;;;;;;;8.60;1.70;;;17.70;56.50;;;;;;4984633;28;20056;-55
2022/10/07 10:48:38;;;;;;;5.47;1.70;;;17.80;56.50;;;;;;4989212;28;20046;-55
2022/10/07 10:51:33;;;;;;;11.75;2.88;;;17.80;56.90;;;;;;4982444;28;20043;-54
2022/10/07 10:54:20;;;;;;;7.07;1.58;;;17.80;56.60;;;;;;4994574;28;20049;-54
2022/10/07 10:57:03;;;;;;;5.88;1.73;;;17.90;56.00;;;;;;4980042;28;20081;-54
2022/10/07 10:59:41;;;;;;;5.22;1.80;;;18.00;55.70;;;;;;4982824;28;20047;-51
2022/10/07 11:02:37;;;;;;;4.70;1.58;;;18.00;55.50;;;;;;4991324;28;20403;-56
2022/10/07 11:05:12;;;;;;;10.65;1.80;;;18.10;55.20;;;;;;4992157;28;20046;-55
2022/10/07 11:07:44;;;;;;;8.10;2.13;;;18.10;55.40;;;;;;4992322;28;20039;-55
2022/10/07 11:10:24;;;;;;;7.65;1.98;;;18.30;55.50;;;;;;4988421;28;20121;-54
2022/10/07 11:13:00;;;;;;;8.38;1.95;;;18.20;55.60;;;;;;4991492;28;20042;-56
2022/10/07 11:15:38;;;;;;;7.63;2.00;;;18.20;54.90;;;;;;4992160;28;20095;-55
2022/10/07 11:18:10;;;;;;;7.30;2.13;;;18.30;55.00;;;;;;4980255;28;20043;-54
2022/10/07 11:20:47;;;;;;;;;;;18.30;55.30;;;;;;4992036;28;20041;-53
2022/10/07 11:23:40;;;;;;;6.15;1.52;;;18.40;55.60;;;;;;4984810;28;19929;-55
2022/10/07 11:26:19;;;;;;;4.45;1.65;;;18.50;54.80;;;;;;4989102;28;20057;-55
2022/10/07 11:28:49;;;;;;;5.10;1.63;;;18.50;54.80;;;;;;4966288;28;20138;-54
2022/10/07 11:31:36;;;;;;;5.80;2.03;;;18.60;54.80;;;;;;4986240;28;20157;-54
2022/10/07 11:34:17;;;;;;;7.63;1.90;;;18.60;54.40;;;;;;4989479;28;20499;-55
2022/10/07 11:37:02;;;;;;;4.65;2.17;;;18.70;54.80;;;;;;4979009;28;20430;-55
2022/10/07 11:39:29;;;;;;;5.82;1.58;;;18.70;54.60;;;;;;4989671;28;20055;-53
2022/10/07 11:42:22;;;;;;;10.35;3.97;;;18.70;54.30;;;;;;4991483;28;20434;-54
2022/10/07 11:45:04;;;;;;;6.53;1.52;;;18.80;54.10;;;;;;4986746;28;20042;-56
2022/10/07 11:47:34;;;;;;;;;;;18.90;54.30;;;;;;4991844;28;20042;-55
2022/10/07 11:50:07;;;;;;;6.82;2.00;;;18.90;54.70;;;;;;4991690;28;19929;-54
2022/10/07 11:52:40;;;;;;;7.85;1.70;;;18.90;54.00;;;;;;4990876;28;20485;-56
2022/10/07 11:55:23;;;;;;;11.55;1.95;;;19.00;54.20;;;;;;4982903;28;20296;-56
2022/10/07 11:57:56;;;;;;;5.68;1.63;;;19.00;54.10;;;;;;4987720;28;20092;-54
2022/10/07 12:00:34;;;;;;;7.22;2.38;;;19.10;53.60;;;;;;4993519;28;20066;-53
2022/10/07 12:03:16;;;;;;;11.68;2.50;;;19.20;53.60;;;;;;4986111;28;20093;-55
2022/10/07 12:05:48;;;;;;;4.73;1.60;;;19.20;53.70;;;;;;4987224;28;20057;-53
2022/10/07 12:08:34;;;;;;;7.40;2.00;;;19.30;53.70;;;;;;4966084;28;20084;-54
2022/10/07 12:11:10;;;;;;;8.27;1.73;;;19.30;53.00;;;;;;4990243;28;20056;-54
2022/10/07 12:13:45;;;;;;;5.70;1.92;;;19.40;53.40;;;;;;4980914;28;20058;-55
2022/10/07 12:16:28;;;;;;;8.23;1.70;;;19.40;53.20;;;;;;4990960;28;20514;-54
2022/10/07 12:19:17;;;;;;;10.95;2.97;;;19.50;52.60;;;;;;4973431;28;20050;-55
2022/10/07 12:21:58;;;;;;;5.47;1.92;;;19.50;52.50;;;;;;4991002;28;20503;-54
2022/10/07 12:24:34;;;;;;;6.35;2.08;;;19.60;53.00;;;;;;4984909;28;20495;-54
2022/10/07 12:27:25;;;;;;;6.85;1.80;;;19.60;52.60;;;;;;4991171;28;20125;-54
2022/10/07 12:30:03;;;;;;;5.40;1.92;;;19.70;52.10;;;;;;4991057;28;20053;-55
2022/10/07 12:32:49;;;;;;;2.72;1.20;;;19.70;52.30;;;;;;4986830;28;20050;-54
2022/10/07 12:35:31;;;;;;;8.45;1.80;;;19.70;51.80;;;;;;4986791;28;20042;-54
2022/10/07 12:38:13;;;;;;;8.23;1.80;;;19.80;51.90;;;;;;4989024;28;20050;-56
2022/10/07 12:40:43;;;;;;;5.72;1.58;;;19.90;52.00;;;;;;4984120;28;20066;-54
2022/10/07 12:43:23;;;;;;;7.05;2.08;;;19.90;51.60;;;;;;4985791;28;20451;-55
2022/10/07 12:45:51;;;;;;;9.40;1.65;;;20.00;50.80;;;;;;4987912;28;20469;-54
2022/10/07 12:48:21;;;;;;;4.97;1.50;;;20.00;51.40;;;;;;4986238;28;20089;-54
2022/10/07 12:50:52;;;;;;;3.88;1.80;;;20.10;51.50;;;;;;4987661;28;20541;-55
2022/10/07 12:53:26;;;;;;;6.88;1.67;;;20.20;51.20;;;;;;4986936;28;20058;-54
2022/10/07 12:55:56;;;;;;;7.85;2.47;;;20.20;51.20;;;;;;4991222;28;20422;-54
2022/10/07 13:02:05;;;;;;;5.60;1.48;;;20.40;50.40;;;;;;4979606;28;20085;-51
2022/10/07 13:05:12;;;;;;;7.50;1.55;;;20.50;49.70;;;;;;4985324;28;20046;-53
2022/10/07 13:08:19;;;;;;;6.65;1.90;;;20.60;49.20;;;;;;4951431;28;20059;-51
2022/10/07 13:11:16;;;;;;;9.02;2.15;;;20.70;49.20;;;;;;4983171;28;20042;-52
2022/10/07 13:13:49;;;;;;;7.07;1.80;;;20.70;48.90;;;;;;4991565;28;20060;-54
2022/10/07 13:16:28;;;;;;;7.70;1.55;;;20.80;49.00;;;;;;4987142;28;20039;-50
2022/10/07 13:19:17;;;;;;;5.63;1.95;;;20.80;49.20;;;;;;4994451;28;20494;-53
2022/10/07 13:21:53;;;;;;;4.43;1.30;;;20.90;48.80;;;;;;4990856;28;20052;-53
2022/10/07 13:24:25;;;;;;;6.03;1.50;;;21.00;48.50;;;;;;4987415;28;20094;-54
2022/10/07 13:26:53;;;;;;;3.80;1.60;;;21.00;48.30;;;;;;4994809;28;20049;-50
2022/10/07 13:29:43;;;;;;;6.90;2.40;;;21.10;48.30;;;;;;4986837;28;20113;-51
2022/10/07 13:32:22;;;;;;;6.13;1.77;;;21.20;48.30;;;;;;4986906;28;20137;-55
2022/10/07 13:34:52;;;;;;;6.65;1.60;;;21.30;48.70;;;;;;4994448;28;20080;-52
2022/10/07 13:37:30;;;;;;;8.43;1.70;;;21.60;49.00;;;;;;4992036;28;20050;-54